CheckWX is a tool to help pilots better visualize weather data.  It is not intended as a substitute for an official pre-flight weather briefing.

19:23:52 UTC

VTUQ METAR
Nakhon Ratchasima Airport
Thailand
Current

8 hours ago

VTUQ 121100Z 26003KT 200V360 9000 FEW030 33/24 Q1004 NOSIG
Observed
Jul-12 @ 11:00 UTC
Wind
  • 260° at 3 KTS
Visibility
8996 meters
Flight Rules
VFR
Cloud Levels
  • Few at 3,000' AGL
Temperature
33°C / 91°F
Dewpoint
24°C / 75°F
Humidity
59%
Altimeter
29.65" Hg
Pressure
1003.92 hPa
Previous

9 hours ago

VTUQ 121000Z VRB04KT 9000 SCT030 34/24 Q1004 NOSIG
Observed
Jul-12 @ 10:00 UTC
Wind
  • Variable at 4 KTS
Visibility
8996 meters
Flight Rules
VFR
Cloud Levels
  • Scattered at 3,000' AGL
Temperature
34°C / 93°F
Dewpoint
24°C / 75°F
Humidity
56%
Altimeter
29.65" Hg
Pressure
1003.92 hPa
Previous

10 hours ago

VTUQ 120900Z VRB04KT 9999 SCT030 34/24 Q1004 NOSIG
Observed
Jul-12 @ 09:00 UTC
Wind
  • Variable at 4 KTS
Visibility
10,000+ meters
Flight Rules
VFR
Cloud Levels
  • Scattered at 3,000' AGL
Temperature
34°C / 93°F
Dewpoint
24°C / 75°F
Humidity
56%
Altimeter
29.65" Hg
Pressure
1003.92 hPa